Cheemaun — ZCGM9 — position and weather

sailwx.info

Track history (hours):
 
Tides and Currents Weather Stations Pressure Air Temp Water Temp Dewpoint Dewpoint Depression Visibility Wind Speed Wind Dir Waves Ship Positions

Cheemaun

Last reported at 2015-Jul-19 20:32 UTC. Time now 2015-Jul-30 06:09 UTC.
Position N 49°48' W 124°32'.
Warning: this ship's position is 10 days out of date.

Length 20 m.

Type: Pleasure craft. MMSI: 319704000.

Date/timePositionNaut miles runAvg speedWind from/ knotsBaromVisibWave heightAir tempDewpointWater temp
2015-Jul-19 20:32N 49°48' W 124°32'8 7.7
2015-Jul-19 19:32N 49°44' W 124°22'7 7.5
2015-Jul-19 18:33N 49°39' W 124°14'8 8.1
2015-Jul-19 17:33N 49°34' W 124°04'8 7.9
2015-Jul-19 16:33N 49°29' W 123°55'8 8.3
2015-Jul-19 15:33N 49°24' W 123°44'9 8.6
2015-Jul-19 14:32N 49°21' W 123°32'8 8.6
2015-Jul-19 13:33N 49°20' W 123°19'8 7.6
2015-Jul-19 12:33N 49°19' W 123°07'1 1.1
2015-Jul-19 11:32N 49°18' W 123°08'0 0.0
2015-Jul-19 10:32N 49°18' W 123°08'0 0.0
2015-Jul-19 09:33N 49°18' W 123°08'0 0.0
2015-Jul-19 08:33N 49°18' W 123°08'0 0.0
2015-Jul-19 07:33N 49°18' W 123°08'0 0.0
2015-Jul-19 06:33N 49°18' W 123°08'0 0.0
2015-Jul-19 05:33N 49°18' W 123°08'0 0.0
2015-Jul-19 04:33N 49°18' W 123°08'0 0.0
2015-Jul-19 00:33N 49°18' W 123°08'0 0.0
2015-Jul-18 23:33N 49°18' W 123°08'0 0.0
2015-Jul-18 22:33N 49°18' W 123°08'0 0.0
2015-Jul-18 21:33N 49°18' W 123°08'0 0.0
2015-Jul-18 20:33N 49°18' W 123°08'0 0.0
2015-Jul-18 19:33N 49°18' W 123°08'0 0.0
2015-Jul-18 18:31N 49°18' W 123°08'0 0.0
2015-Jul-18 17:31N 49°18' W 123°08'0 0.0
2015-Jul-18 16:31N 49°18' W 123°08'0 0.0
2015-Jul-18 15:31N 49°18' W 123°08'0 0.0
2015-Jul-18 14:31N 49°18' W 123°08'0 0.0
2015-Jul-18 13:31N 49°18' W 123°08'0 0.0
2015-Jul-18 12:31N 49°18' W 123°08'0 0.0
2015-Jul-18 11:31N 49°18' W 123°08'0 0.0
2015-Jul-18 10:28N 49°18' W 123°08'0 0.0
2015-Jul-18 09:31N 49°18' W 123°08'0 0.0
2015-Jul-18 08:31N 49°18' W 123°08'0 0.0
2015-Jul-18 07:31N 49°18' W 123°08'0 0.0
2015-Jul-18 06:31N 49°18' W 123°08'0 0.0
2015-Jul-18 05:31N 49°18' W 123°08'0 0.0
2015-Jul-18 04:31N 49°18' W 123°08'0 0.2
2015-Jul-18 03:31N 49°17' W 123°07'2 1.9
2015-Jul-18 02:33N 49°19' W 123°09'8 7.4
2015-Jul-18 01:32N 49°14' W 123°18'8 7.6
2015-Jul-18 00:32N 49°07' W 123°19'35 7.0
2015-Jul-17 19:29N 48°41' W 122°42'7 5.7
2015-Jul-17 18:19N 48°35' W 122°36'5 6.1
2015-Jul-17 17:32N 48°31' W 122°36'0 0.2
2015-Jul-17 16:17N 48°31' W 122°36'0 0.0
2015-Jul-17 15:29N 48°31' W 122°36'0 0.0
2015-Jul-17 14:29N 48°31' W 122°36'0 0.0
2015-Jul-17 13:29N 48°31' W 122°36'0 0.0
2015-Jul-17 12:32N 48°31' W 122°36'0 0.0
2015-Jul-17 11:17N 48°31' W 122°36'0 0.0
2015-Jul-17 10:29N 48°31' W 122°36'0 0.0
2015-Jul-17 09:29N 48°31' W 122°36'0 0.0
2015-Jul-17 08:11N 48°31' W 122°36'0 0.0
2015-Jul-17 07:29N 48°31' W 122°36'0 0.0
2015-Jul-17 06:29N 48°31' W 122°36'0 0.0
2015-Jul-17 05:33N 48°31' W 122°36'36 5.1
2015-Jul-16 22:33N 47°56' W 122°28'7 7.5
2015-Jul-16 21:33N 47°48' W 122°26'8 7.7
2015-Jul-16 20:33N 47°41' W 122°25'2 1.5
2015-Jul-16 19:33N 47°40' W 122°23'0 0.0
2015-Jul-16 18:33N 47°40' W 122°23'0 0.0
2015-Jul-16 17:33N 47°40' W 122°23'0 0.0
2015-Jul-16 16:30N 47°40' W 122°23'0 0.0
2015-Jul-16 15:33N 47°40' W 122°23'  
2015-Jul-13 18:33N 47°40' W 122°24'0 0.3
2015-Jul-13 17:31N 47°40' W 122°24'3 2.4
2015-Jul-13 16:13N 47°37' W 122°23'2 0.1
2015-Jul-12 18:33N 47°36' W 122°25'6 6.4
2015-Jul-12 17:33N 47°35' W 122°34'9 0.2
2015-Jul-11 03:31N 47°44' W 122°31'7 6.7
2015-Jul-11 02:33N 47°50' W 122°29'40 6.6
2015-Jul-10 20:33N 48°25' W 122°57'6 6.4
2015-Jul-10 19:33N 48°32' W 122°57'2 2.3
2015-Jul-10 18:34N 48°32' W 123°01'0 0.0
2015-Jul-10 17:34N 48°32' W 123°01'0 0.0
2015-Jul-10 16:34N 48°32' W 123°01'0 0.0
2015-Jul-10 15:34N 48°32' W 123°01'0 0.0
2015-Jul-10 14:31N 48°32' W 123°01'0 0.0
2015-Jul-10 13:31N 48°32' W 123°01'0 0.0
2015-Jul-10 12:28N 48°32' W 123°01'0 0.0
2015-Jul-10 11:25N 48°32' W 123°01'0 0.0
2015-Jul-10 10:33N 48°32' W 123°01'0 0.0
2015-Jul-10 09:32N 48°32' W 123°01'0 0.0
2015-Jul-10 08:32N 48°32' W 123°01'0 0.0
2015-Jul-10 07:29N 48°32' W 123°01'0 0.0
2015-Jul-10 06:32N 48°32' W 123°01'0 0.0
2015-Jul-10 05:32N 48°32' W 123°01'0 0.0
2015-Jul-10 04:32N 48°32' W 123°01'0 0.0
2015-Jul-10 03:32N 48°32' W 123°01'0 0.0
2015-Jul-10 02:32N 48°32' W 123°01'0 0.0
2015-Jul-10 01:29N 48°32' W 123°01'0 0.0
2015-Jul-10 00:32N 48°32' W 123°01'0 0.0
2015-Jul-09 23:32N 48°32' W 123°01'0 0.0
2015-Jul-09 22:32N 48°32' W 123°01'0 0.0
2015-Jul-09 21:32N 48°32' W 123°01'  
Track history (hours):
 
Tides and Currents Weather Stations Pressure Air Temp Water Temp Dewpoint Dewpoint Depression Visibility Wind Speed Wind Dir Waves Ship Positions

Cheemaun

Last reported at 2015-Jul-19 20:32 UTC. Time now 2015-Jul-30 06:09 UTC.
Position N 49°48' W 124°32'.
Warning: this ship's position is 10 days out of date.

Length 20 m.

Type: Pleasure craft. MMSI: 319704000.

Date/timePositionNaut miles runAvg speedWind from/ knotsBaromVisibWave heightAir tempDewpointWater temp
2015-Jul-19 20:32N 49°48' W 124°32'8 7.7
2015-Jul-19 19:32N 49°44' W 124°22'7 7.5
2015-Jul-19 18:33N 49°39' W 124°14'8 8.1
2015-Jul-19 17:33N 49°34' W 124°04'8 7.9
2015-Jul-19 16:33N 49°29' W 123°55'8 8.3
2015-Jul-19 15:33N 49°24' W 123°44'9 8.6
2015-Jul-19 14:32N 49°21' W 123°32'8 8.6
2015-Jul-19 13:33N 49°20' W 123°19'8 7.6
2015-Jul-19 12:33N 49°19' W 123°07'1 1.1
2015-Jul-19 11:32N 49°18' W 123°08'0 0.0
2015-Jul-19 10:32N 49°18' W 123°08'0 0.0
2015-Jul-19 09:33N 49°18' W 123°08'0 0.0
2015-Jul-19 08:33N 49°18' W 123°08'0 0.0
2015-Jul-19 07:33N 49°18' W 123°08'0 0.0
2015-Jul-19 06:33N 49°18' W 123°08'0 0.0
2015-Jul-19 05:33N 49°18' W 123°08'0 0.0
2015-Jul-19 04:33N 49°18' W 123°08'0 0.0
2015-Jul-19 00:33N 49°18' W 123°08'0 0.0
2015-Jul-18 23:33N 49°18' W 123°08'0 0.0
2015-Jul-18 22:33N 49°18' W 123°08'0 0.0
2015-Jul-18 21:33N 49°18' W 123°08'0 0.0
2015-Jul-18 20:33N 49°18' W 123°08'0 0.0
2015-Jul-18 19:33N 49°18' W 123°08'0 0.0
2015-Jul-18 18:31N 49°18' W 123°08'0 0.0
2015-Jul-18 17:31N 49°18' W 123°08'0 0.0
2015-Jul-18 16:31N 49°18' W 123°08'0 0.0
2015-Jul-18 15:31N 49°18' W 123°08'0 0.0
2015-Jul-18 14:31N 49°18' W 123°08'0 0.0
2015-Jul-18 13:31N 49°18' W 123°08'0 0.0
2015-Jul-18 12:31N 49°18' W 123°08'0 0.0
2015-Jul-18 11:31N 49°18' W 123°08'0 0.0
2015-Jul-18 10:28N 49°18' W 123°08'0 0.0
2015-Jul-18 09:31N 49°18' W 123°08'0 0.0
2015-Jul-18 08:31N 49°18' W 123°08'0 0.0
2015-Jul-18 07:31N 49°18' W 123°08'0 0.0
2015-Jul-18 06:31N 49°18' W 123°08'0 0.0
2015-Jul-18 05:31N 49°18' W 123°08'0 0.0
2015-Jul-18 04:31N 49°18' W 123°08'0 0.2
2015-Jul-18 03:31N 49°17' W 123°07'2 1.9
2015-Jul-18 02:33N 49°19' W 123°09'8 7.4
2015-Jul-18 01:32N 49°14' W 123°18'8 7.6
2015-Jul-18 00:32N 49°07' W 123°19'35 7.0
2015-Jul-17 19:29N 48°41' W 122°42'7 5.7
2015-Jul-17 18:19N 48°35' W 122°36'5 6.1
2015-Jul-17 17:32N 48°31' W 122°36'0 0.2
2015-Jul-17 16:17N 48°31' W 122°36'0 0.0
2015-Jul-17 15:29N 48°31' W 122°36'0 0.0
2015-Jul-17 14:29N 48°31' W 122°36'0 0.0
2015-Jul-17 13:29N 48°31' W 122°36'0 0.0
2015-Jul-17 12:32N 48°31' W 122°36'0 0.0
2015-Jul-17 11:17N 48°31' W 122°36'0 0.0
2015-Jul-17 10:29N 48°31' W 122°36'0 0.0
2015-Jul-17 09:29N 48°31' W 122°36'0 0.0
2015-Jul-17 08:11N 48°31' W 122°36'0 0.0
2015-Jul-17 07:29N 48°31' W 122°36'0 0.0
2015-Jul-17 06:29N 48°31' W 122°36'0 0.0
2015-Jul-17 05:33N 48°31' W 122°36'36 5.1
2015-Jul-16 22:33N 47°56' W 122°28'7 7.5
2015-Jul-16 21:33N 47°48' W 122°26'8 7.7
2015-Jul-16 20:33N 47°41' W 122°25'2 1.5
2015-Jul-16 19:33N 47°40' W 122°23'0 0.0
2015-Jul-16 18:33N 47°40' W 122°23'0 0.0
2015-Jul-16 17:33N 47°40' W 122°23'0 0.0
2015-Jul-16 16:30N 47°40' W 122°23'0 0.0
2015-Jul-16 15:33N 47°40' W 122°23'  
2015-Jul-13 18:33N 47°40' W 122°24'0 0.3
2015-Jul-13 17:31N 47°40' W 122°24'3 2.4
2015-Jul-13 16:13N 47°37' W 122°23'2 0.1
2015-Jul-12 18:33N 47°36' W 122°25'6 6.4
2015-Jul-12 17:33N 47°35' W 122°34'9 0.2
2015-Jul-11 03:31N 47°44' W 122°31'7 6.7
2015-Jul-11 02:33N 47°50' W 122°29'40 6.6
2015-Jul-10 20:33N 48°25' W 122°57'6 6.4
2015-Jul-10 19:33N 48°32' W 122°57'2 2.3
2015-Jul-10 18:34N 48°32' W 123°01'0 0.0
2015-Jul-10 17:34N 48°32' W 123°01'0 0.0
2015-Jul-10 16:34N 48°32' W 123°01'0 0.0
2015-Jul-10 15:34N 48°32' W 123°01'0 0.0
2015-Jul-10 14:31N 48°32' W 123°01'0 0.0
2015-Jul-10 13:31N 48°32' W 123°01'0 0.0
2015-Jul-10 12:28N 48°32' W 123°01'0 0.0
2015-Jul-10 11:25N 48°32' W 123°01'0 0.0
2015-Jul-10 10:33N 48°32' W 123°01'0 0.0
2015-Jul-10 09:32N 48°32' W 123°01'0 0.0
2015-Jul-10 08:32N 48°32' W 123°01'0 0.0
2015-Jul-10 07:29N 48°32' W 123°01'0 0.0
2015-Jul-10 06:32N 48°32' W 123°01'0 0.0
2015-Jul-10 05:32N 48°32' W 123°01'0 0.0
2015-Jul-10 04:32N 48°32' W 123°01'0 0.0
2015-Jul-10 03:32N 48°32' W 123°01'0 0.0
2015-Jul-10 02:32N 48°32' W 123°01'0 0.0
2015-Jul-10 01:29N 48°32' W 123°01'0 0.0
2015-Jul-10 00:32N 48°32' W 123°01'0 0.0
2015-Jul-09 23:32N 48°32' W 123°01'0 0.0
2015-Jul-09 22:32N 48°32' W 123°01'0 0.0
2015-Jul-09 21:32N 48°32' W 123°01'  

Dump ship's entire track history